createdAt,value
2019-05-11T00:00:59.037Z,78.94
2019-05-11T00:03:25.101Z,80.19
2019-05-11T00:05:51.048Z,79.78
2019-05-11T00:08:16.991Z,79.71
2019-05-11T00:10:42.917Z,79.48
2019-05-11T00:13:08.814Z,78.25
2019-05-11T00:15:34.761Z,78.41
2019-05-11T00:18:00.703Z,78.20
2019-05-11T00:20:26.593Z,77.57
2019-05-11T00:22:52.675Z,76.51
2019-05-11T00:25:18.924Z,76.25
2019-05-11T00:27:44.968Z,76.05
2019-05-11T00:30:12.198Z,76.32
2019-05-11T00:32:38.261Z,76.43
2019-05-11T00:35:05.897Z,76.14
2019-05-11T00:37:31.835Z,76.23
2019-05-11T00:40:12.076Z,76.69
2019-05-11T00:42:25.684Z,77.50
2019-05-11T00:44:51.689Z,77.88
2019-05-11T00:47:17.656Z,78.03
2019-05-11T00:49:43.617Z,77.95
2019-05-11T00:52:09.910Z,78.36
2019-05-11T00:54:35.812Z,78.53
2019-05-11T00:57:02.080Z,80.55
2019-05-11T00:59:28.048Z,80.73
2019-05-11T01:01:53.942Z,80.25
2019-05-11T01:04:20.051Z,79.61
2019-05-11T01:06:46.133Z,79.12
2019-05-11T01:09:12.065Z,78.84
2019-05-11T01:11:38.085Z,79.10
2019-05-11T01:14:04.127Z,79.36
2019-05-11T01:16:30.031Z,79.61
2019-05-11T01:18:56.063Z,79.72
2019-05-11T01:21:21.966Z,79.22
2019-05-11T01:23:47.913Z,79.24
2019-05-11T01:26:13.885Z,79.58
2019-05-11T01:28:39.845Z,79.63
2019-05-11T01:31:05.766Z,79.19
2019-05-11T01:33:31.721Z,78.96
2019-05-11T01:35:57.654Z,79.20
2019-05-11T01:38:23.577Z,79.23
2019-05-11T01:40:58.137Z,79.12
2019-05-11T01:43:17.315Z,79.09
2019-05-11T01:45:43.253Z,79.48
2019-05-11T01:48:09.267Z,79.40
2019-05-11T01:50:35.195Z,79.12
2019-05-11T01:53:01.134Z,79.02
2019-05-11T01:55:27.038Z,78.65
2019-05-11T01:57:53.220Z,78.31
2019-05-11T02:00:19.227Z,78.38
2019-05-11T02:02:45.138Z,78.58
2019-05-11T02:05:11.280Z,78.56
2019-05-11T02:07:37.203Z,78.39
2019-05-11T02:10:04.695Z,78.36
2019-05-11T02:12:30.593Z,77.79
2019-05-11T02:14:56.530Z,77.83
2019-05-11T02:17:22.467Z,78.32
2019-05-11T02:19:48.370Z,78.44
2019-05-11T02:22:14.324Z,78.47
2019-05-11T02:24:40.229Z,78.92
2019-05-11T02:27:06.174Z,79.26
2019-05-11T02:29:32.244Z,79.75
2019-05-11T02:31:58.247Z,80.77
2019-05-11T02:34:24.191Z,81.89
2019-05-11T02:36:50.087Z,82.32
2019-05-11T02:39:16.026Z,82.00
2019-05-11T02:41:42.986Z,81.87
2019-05-11T02:44:08.971Z,81.67
2019-05-11T02:46:35.085Z,81.53
2019-05-11T02:49:02.095Z,81.69
2019-05-11T02:51:28.151Z,81.75
2019-05-11T02:53:54.567Z,81.84
2019-05-11T02:56:20.612Z,81.79
2019-05-11T02:58:46.898Z,81.85
2019-05-11T03:01:12.906Z,81.61
2019-05-11T03:03:38.811Z,81.59
2019-05-11T03:06:04.742Z,81.19
2019-05-11T03:08:30.646Z,81.24
2019-05-11T03:10:56.597Z,81.10
2019-05-11T03:13:22.599Z,81.25
2019-05-11T03:15:48.536Z,80.59
2019-05-11T03:18:14.503Z,80.62
2019-05-11T03:20:40.513Z,80.23
2019-05-11T03:23:06.412Z,80.26
2019-05-11T03:25:32.368Z,80.24
2019-05-11T03:27:58.295Z,80.56
2019-05-11T03:30:24.417Z,81.12
2019-05-11T03:32:50.421Z,81.20
2019-05-11T03:35:16.367Z,80.98
2019-05-11T03:37:42.415Z,80.80
2019-05-11T03:40:08.805Z,80.95
2019-05-11T03:42:35.040Z,81.69
2019-05-11T03:45:04.664Z,82.08
2019-05-11T03:47:30.690Z,82.70
2019-05-11T03:49:56.617Z,83.01
2019-05-11T03:52:22.522Z,82.80
2019-05-11T03:54:48.690Z,83.04
2019-05-11T03:57:14.598Z,83.00
2019-05-11T03:59:40.641Z,82.90
2019-05-11T04:02:06.699Z,82.70
2019-05-11T04:04:32.724Z,82.34
2019-05-11T04:06:58.625Z,82.45
2019-05-11T04:09:24.576Z,82.52
2019-05-11T04:11:50.520Z,82.48
2019-05-11T04:14:16.514Z,82.54
2019-05-11T04:16:42.464Z,82.33
2019-05-11T04:19:08.364Z,82.49
2019-05-11T04:21:34.263Z,82.06
2019-05-11T04:24:00.528Z,81.88
2019-05-11T04:26:26.465Z,82.14
2019-05-11T04:28:52.653Z,81.94
2019-05-11T04:31:18.591Z,81.93
2019-05-11T04:33:44.530Z,82.43
2019-05-11T04:36:10.623Z,83.11
2019-05-11T04:38:36.530Z,83.40
2019-05-11T04:41:02.535Z,83.65
2019-05-11T04:43:28.492Z,83.31
2019-05-11T04:45:54.379Z,82.92
2019-05-11T04:48:20.324Z,82.22
2019-05-11T04:50:46.261Z,82.33
2019-05-11T04:53:12.218Z,82.71
2019-05-11T04:55:38.121Z,82.96
2019-05-11T04:58:04.184Z,83.07
2019-05-11T05:00:30.331Z,82.74
2019-05-11T05:02:56.229Z,83.09
2019-05-11T05:05:22.162Z,83.24
2019-05-11T05:07:50.422Z,82.67
2019-05-11T05:10:19.933Z,83.99
2019-05-11T05:12:50.807Z,84.27
2019-05-11T05:15:12.074Z,83.85
2019-05-11T05:17:39.106Z,83.31
2019-05-11T05:20:06.413Z,83.62
2019-05-11T05:22:32.492Z,83.74
2019-05-11T05:24:58.497Z,83.59
2019-05-11T05:27:24.430Z,83.54
2019-05-11T05:29:50.434Z,83.34
2019-05-11T05:32:16.473Z,83.57
2019-05-11T05:34:42.414Z,83.07
2019-05-11T05:37:08.437Z,83.16
2019-05-11T05:39:34.345Z,83.06
2019-05-11T05:42:00.286Z,83.58
2019-05-11T05:44:27.855Z,83.89
2019-05-11T05:46:54.273Z,83.81
2019-05-11T05:49:20.228Z,83.61
2019-05-11T05:51:46.127Z,83.02
2019-05-11T05:54:12.088Z,82.41
2019-05-11T05:56:38.041Z,82.94
2019-05-11T05:59:04.138Z,82.82
2019-05-11T06:01:30.101Z,82.50
2019-05-11T06:03:56.132Z,82.99
2019-05-11T06:06:22.047Z,83.69
2019-05-11T06:08:48.048Z,83.65
2019-05-11T06:11:14.064Z,83.20
2019-05-11T06:13:45.275Z,83.28
2019-05-11T06:16:07.806Z,83.39
2019-05-11T06:18:33.745Z,83.48
2019-05-11T06:20:59.648Z,83.58
2019-05-11T06:23:25.686Z,82.75
2019-05-11T06:25:51.589Z,82.29
2019-05-11T06:28:17.562Z,81.76
2019-05-11T06:30:43.507Z,82.19
2019-05-11T06:33:09.432Z,81.22
2019-05-11T06:35:35.384Z,82.00
2019-05-11T06:38:01.334Z,81.95
2019-05-11T06:40:28.605Z,81.65
2019-05-11T06:42:54.848Z,81.24
2019-05-11T06:45:20.751Z,81.05
2019-05-11T06:47:46.651Z,81.54
2019-05-11T06:50:13.610Z,80.26
2019-05-11T06:52:39.512Z,79.68
2019-05-11T06:55:05.694Z,80.15
2019-05-11T06:57:31.603Z,79.44
2019-05-11T06:59:57.882Z,78.85
2019-05-11T07:02:24.125Z,79.45
2019-05-11T07:04:50.020Z,80.30
2019-05-11T07:07:16.109Z,80.61
2019-05-11T07:09:42.016Z,81.17
2019-05-11T07:12:09.222Z,79.22
2019-05-11T07:14:35.421Z,80.62
2019-05-11T07:17:01.582Z,80.25
2019-05-11T07:19:27.486Z,80.48
2019-05-11T07:21:53.438Z,80.01
2019-05-11T07:24:19.440Z,79.54
2019-05-11T07:26:45.349Z,80.26
2019-05-11T07:29:11.329Z,79.82
2019-05-11T07:31:37.354Z,80.78
2019-05-11T07:34:03.483Z,81.65
2019-05-11T07:36:30.787Z,82.42
2019-05-11T07:38:57.991Z,82.19
2019-05-11T07:41:24.146Z,80.09
2019-05-11T07:43:50.047Z,79.79
2019-05-11T07:46:18.240Z,81.09
2019-05-11T07:48:44.364Z,82.63
2019-05-11T07:51:10.284Z,83.57
2019-05-11T07:53:38.116Z,83.79
2019-05-11T07:56:04.207Z,84.53
2019-05-11T07:58:30.209Z,85.08
2019-05-11T08:00:58.125Z,84.33
2019-05-11T08:03:24.102Z,83.87
2019-05-11T08:05:50.114Z,82.99
2019-05-11T08:08:18.079Z,82.23
2019-05-11T08:10:44.448Z,81.29
2019-05-11T08:13:10.351Z,80.24
2019-05-11T08:15:38.238Z,80.23
2019-05-11T08:18:04.383Z,81.71
2019-05-11T08:20:30.360Z,82.34
2019-05-11T08:22:58.507Z,82.60
2019-05-11T08:25:24.110Z,83.35
2019-05-11T08:27:50.057Z,83.98
2019-05-11T08:30:18.793Z,83.07
2019-05-11T08:32:44.975Z,83.52
2019-05-11T08:35:11.529Z,83.78
2019-05-11T08:37:38.970Z,84.16
2019-05-11T08:40:07.725Z,84.98
2019-05-11T08:42:33.776Z,84.53
2019-05-11T08:45:15.927Z,83.23
2019-05-11T08:47:28.441Z,82.72
2019-05-11T08:49:54.514Z,82.47
2019-05-11T08:52:20.692Z,83.48
2019-05-11T08:54:48.677Z,83.10
2019-05-11T08:57:14.720Z,82.80
2019-05-11T08:59:40.661Z,82.66
2019-05-11T09:02:08.176Z,82.11
2019-05-11T09:04:34.347Z,81.96
2019-05-11T09:07:00.389Z,82.85
2019-05-11T09:09:28.692Z,83.19
2019-05-11T09:11:54.592Z,82.89
2019-05-11T09:14:20.677Z,83.87
2019-05-11T09:16:48.881Z,84.20
2019-05-11T09:19:14.641Z,84.79
2019-05-11T09:21:40.526Z,84.68
2019-05-11T09:24:08.441Z,83.87
2019-05-11T09:26:34.335Z,84.30
2019-05-11T09:29:00.275Z,85.06
2019-05-11T09:31:27.913Z,85.55
2019-05-11T09:33:54.046Z,84.95
2019-05-11T09:36:20.058Z,84.18
2019-05-11T09:38:48.617Z,82.63
2019-05-11T09:41:13.980Z,82.97
2019-05-11T09:43:39.957Z,82.65
2019-05-11T09:46:08.076Z,84.22
2019-05-11T09:48:33.717Z,84.57
2019-05-11T09:50:59.758Z,85.92
2019-05-11T09:53:25.661Z,84.22
2019-05-11T09:55:51.561Z,83.64
2019-05-11T09:58:19.791Z,83.88
2019-05-11T10:00:47.490Z,83.40
2019-05-11T10:03:13.697Z,83.84
2019-05-11T10:05:39.614Z,84.34
2019-05-11T10:08:07.731Z,83.49
2019-05-11T10:10:33.737Z,83.90
2019-05-11T10:12:59.721Z,83.64
2019-05-11T10:15:27.769Z,83.59
2019-05-11T10:17:53.480Z,81.78
2019-05-11T10:20:19.383Z,82.83
2019-05-11T10:22:45.342Z,82.56
2019-05-11T10:25:11.588Z,83.68
2019-05-11T10:27:38.354Z,83.30
2019-05-11T10:30:08.168Z,85.05
2019-05-11T10:32:34.214Z,85.65
2019-05-11T10:35:00.272Z,84.77
2019-05-11T10:37:28.279Z,83.93
2019-05-11T10:39:54.588Z,84.02
2019-05-11T10:42:20.498Z,83.56
2019-05-11T10:44:47.839Z,83.65
2019-05-11T10:47:14.229Z,82.37
2019-05-11T10:49:40.265Z,83.37
2019-05-11T10:52:06.270Z,83.96
2019-05-11T10:54:32.312Z,85.12
2019-05-11T10:56:58.406Z,84.53
2019-05-11T10:59:24.606Z,84.74
2019-05-11T11:01:50.577Z,84.60
2019-05-11T11:04:18.394Z,85.02
2019-05-11T11:06:44.624Z,84.92
2019-05-11T11:09:10.788Z,84.78
2019-05-11T11:11:38.260Z,84.85
2019-05-11T11:14:04.495Z,84.45
2019-05-11T11:16:36.893Z,84.94
2019-05-11T11:18:58.891Z,85.93
2019-05-11T11:21:27.886Z,85.94
2019-05-11T11:23:53.895Z,86.19
2019-05-11T11:26:20.886Z,86.84
2019-05-11T11:28:47.789Z,87.13
2019-05-11T11:31:14.280Z,86.91
2019-05-11T11:33:40.182Z,86.65
2019-05-11T11:36:08.373Z,86.36
2019-05-11T11:38:34.266Z,87.54
2019-05-11T11:41:00.299Z,87.98
2019-05-11T11:43:28.585Z,87.72
2019-05-11T11:45:54.148Z,87.65
2019-05-11T11:48:20.103Z,86.74
2019-05-11T11:50:48.012Z,87.55
2019-05-11T11:53:13.829Z,85.98
2019-05-11T11:55:39.775Z,86.81
2019-05-11T11:58:08.111Z,87.17
2019-05-11T12:00:33.844Z,86.94
2019-05-11T12:02:59.743Z,86.20
2019-05-11T12:05:28.059Z,86.97
2019-05-11T12:07:53.893Z,86.78
2019-05-11T12:10:19.997Z,85.57
2019-05-11T12:12:47.576Z,86.55
2019-05-11T12:15:13.934Z,87.09
2019-05-11T12:17:39.883Z,86.67
2019-05-11T12:20:08.755Z,84.25
2019-05-11T12:22:34.310Z,85.23
2019-05-11T12:25:00.389Z,84.01
2019-05-11T12:27:28.534Z,83.78
2019-05-11T12:29:54.210Z,84.73
2019-05-11T12:32:20.142Z,85.17
2019-05-11T12:34:48.245Z,84.64
2019-05-11T12:37:14.007Z,84.31
2019-05-11T12:39:40.037Z,86.57
2019-05-11T12:42:05.976Z,85.50
2019-05-11T12:44:31.881Z,84.89
2019-05-11T12:46:58.494Z,85.68
2019-05-11T12:49:24.419Z,85.38
2019-05-11T12:51:50.376Z,83.77
2019-05-11T12:54:18.556Z,84.81
2019-05-11T12:56:44.150Z,83.23
2019-05-11T12:59:10.055Z,83.12
2019-05-11T13:01:38.108Z,84.15
2019-05-11T13:04:04.971Z,84.68
2019-05-11T13:06:31.198Z,84.97
2019-05-11T13:08:58.774Z,85.54
2019-05-11T13:11:24.895Z,84.10
2019-05-11T13:13:50.824Z,83.70
2019-05-11T13:16:18.367Z,83.12
2019-05-11T13:18:44.685Z,82.48
2019-05-11T13:21:11.281Z,81.69
2019-05-11T13:23:38.257Z,82.29
2019-05-11T13:26:04.681Z,80.90
2019-05-11T13:28:30.806Z,81.08
2019-05-11T13:30:57.942Z,80.18
2019-05-11T13:33:24.055Z,82.02
2019-05-11T13:35:50.095Z,81.12
2019-05-11T13:38:17.859Z,79.94
2019-05-11T13:40:45.117Z,80.63
2019-05-11T13:43:11.031Z,79.52
2019-05-11T13:45:38.795Z,82.04
2019-05-11T13:48:05.075Z,82.02
2019-05-11T13:50:31.206Z,81.56
2019-05-11T13:52:58.364Z,81.73
2019-05-11T13:55:24.679Z,82.51
2019-05-11T13:57:50.937Z,81.60
2019-05-11T14:00:17.638Z,82.92
2019-05-11T14:02:43.870Z,83.93
2019-05-11T14:05:09.906Z,85.11
2019-05-11T14:07:37.971Z,82.90
2019-05-11T14:10:04.203Z,82.61
2019-05-11T14:12:30.209Z,82.39
2019-05-11T14:14:57.663Z,83.58
2019-05-11T14:17:24.863Z,83.73
2019-05-11T14:19:51.180Z,83.47
2019-05-11T14:22:17.903Z,84.55
2019-05-11T14:24:44.140Z,83.92
2019-05-11T14:27:10.100Z,84.59
2019-05-11T14:29:37.905Z,85.00
2019-05-11T14:32:03.881Z,84.13
2019-05-11T14:34:29.813Z,85.47
2019-05-11T14:36:58.046Z,84.55
2019-05-11T14:39:24.781Z,84.86
2019-05-11T14:41:51.024Z,85.67
2019-05-11T14:44:18.153Z,84.36
2019-05-11T14:46:44.315Z,84.14
2019-05-11T14:49:10.392Z,84.14
2019-05-11T14:51:38.849Z,83.58
2019-05-11T14:54:04.274Z,83.46
2019-05-11T14:56:30.187Z,84.94
2019-05-11T14:58:58.011Z,85.23
2019-05-11T15:01:24.038Z,84.77
2019-05-11T15:03:50.218Z,83.19
2019-05-11T15:06:18.595Z,81.81
2019-05-11T15:08:44.021Z,83.15
2019-05-11T15:11:10.030Z,83.40
2019-05-11T15:13:38.025Z,83.64
2019-05-11T15:16:03.979Z,84.37
2019-05-11T15:18:38.614Z,85.18
2019-05-11T15:20:58.137Z,85.10
2019-05-11T15:23:24.341Z,84.93
2019-05-11T15:25:50.465Z,84.30
2019-05-11T15:28:18.094Z,83.76
2019-05-11T15:30:44.860Z,84.21
2019-05-11T15:33:10.868Z,84.18
2019-05-11T15:35:37.731Z,84.00
2019-05-11T15:38:03.849Z,83.74
2019-05-11T15:40:29.824Z,84.97
2019-05-11T15:42:55.749Z,84.25
2019-05-11T15:45:21.744Z,84.54
2019-05-11T15:47:48.741Z,84.16
2019-05-11T15:50:15.998Z,85.45
2019-05-11T15:52:42.276Z,84.79
2019-05-11T15:55:09.309Z,84.65
2019-05-11T15:57:35.621Z,84.41
2019-05-11T16:00:02.832Z,83.56
2019-05-11T16:02:28.983Z,82.85
2019-05-11T16:04:55.331Z,82.37
2019-05-11T16:07:21.606Z,82.49
2019-05-11T16:09:48.695Z,82.43
2019-05-11T16:12:14.834Z,82.05
2019-05-11T16:14:40.991Z,82.55
2019-05-11T16:17:08.755Z,82.43
2019-05-11T16:19:34.817Z,82.71
2019-05-11T16:22:00.765Z,82.25
2019-05-11T16:24:26.800Z,82.14
2019-05-11T16:26:52.902Z,82.75
2019-05-11T16:29:19.234Z,83.68
2019-05-11T16:31:45.366Z,83.76
2019-05-11T16:34:11.322Z,83.82
2019-05-11T16:36:38.977Z,82.69
2019-05-11T16:39:05.253Z,81.93
2019-05-11T16:41:31.233Z,81.74
2019-05-11T16:43:58.515Z,81.35
2019-05-11T16:46:24.812Z,80.95
2019-05-11T16:48:50.901Z,81.44
2019-05-11T16:51:17.753Z,81.97
2019-05-11T16:53:43.967Z,81.93
2019-05-11T16:56:10.027Z,81.75
2019-05-11T16:58:38.159Z,81.75
2019-05-11T17:01:03.813Z,81.64
2019-05-11T17:03:29.995Z,80.33
2019-05-11T17:05:55.949Z,80.89
2019-05-11T17:08:21.878Z,79.86
2019-05-11T17:10:48.180Z,80.99
2019-05-11T17:13:14.423Z,80.59
2019-05-11T17:15:40.425Z,81.07
2019-05-11T17:18:08.060Z,81.42
2019-05-11T17:20:34.526Z,81.06
2019-05-11T17:23:00.545Z,81.24
2019-05-11T17:25:28.655Z,81.34
2019-05-11T17:27:54.536Z,81.65
2019-05-11T17:30:20.689Z,81.50
2019-05-11T17:32:49.388Z,80.72
2019-05-11T17:35:14.784Z,81.89
2019-05-11T17:37:40.694Z,81.70
2019-05-11T17:40:09.079Z,80.89
2019-05-11T17:42:37.481Z,80.24
2019-05-11T17:45:08.071Z,80.43
2019-05-11T17:47:34.396Z,81.16
2019-05-11T17:50:03.925Z,80.64
2019-05-11T17:52:30.113Z,81.23
2019-05-11T17:54:56.063Z,80.90
2019-05-11T17:57:22.102Z,81.17
2019-05-11T17:59:48.162Z,81.64
2019-05-11T18:02:14.071Z,82.08
2019-05-11T18:04:40.006Z,81.56
2019-05-11T18:07:05.992Z,81.25
2019-05-11T18:09:31.931Z,81.46
2019-05-11T18:11:58.580Z,81.96
2019-05-11T18:14:24.666Z,81.43
2019-05-11T18:16:50.586Z,81.16
2019-05-11T18:19:18.403Z,81.18
2019-05-11T18:21:44.428Z,81.33
2019-05-11T18:24:10.478Z,81.37
2019-05-11T18:26:38.235Z,81.46
2019-05-11T18:29:05.275Z,81.40
2019-05-11T18:31:31.321Z,81.96
2019-05-11T18:33:58.093Z,82.60
2019-05-11T18:36:24.436Z,82.15
2019-05-11T18:38:50.692Z,82.31
2019-05-11T18:41:17.040Z,81.46
2019-05-11T18:43:43.004Z,81.63
2019-05-11T18:46:08.955Z,81.54
2019-05-11T18:48:35.074Z,81.26
2019-05-11T18:51:01.052Z,80.84
2019-05-11T18:53:28.839Z,80.16
2019-05-11T18:55:55.400Z,80.76
2019-05-11T18:58:21.352Z,79.32
2019-05-11T19:00:48.793Z,79.37
2019-05-11T19:03:14.926Z,77.71
2019-05-11T19:05:41.037Z,79.20
2019-05-11T19:08:07.122Z,78.64
2019-05-11T19:10:33.289Z,79.06
2019-05-11T19:13:01.155Z,78.34
2019-05-11T19:15:27.198Z,78.72
2019-05-11T19:17:53.135Z,78.55
2019-05-11T19:20:19.125Z,79.33
2019-05-11T19:22:45.230Z,78.69
2019-05-11T19:25:11.471Z,77.40
2019-05-11T19:27:37.428Z,77.13
2019-05-11T19:30:07.990Z,76.99
2019-05-11T19:32:38.279Z,77.44
2019-05-11T19:35:04.844Z,78.17
2019-05-11T19:37:32.163Z,77.80
2019-05-11T19:39:58.239Z,78.26
2019-05-11T19:42:24.371Z,78.47
2019-05-11T19:44:50.390Z,77.80
2019-05-11T19:47:18.099Z,78.39
2019-05-11T19:49:44.242Z,78.98
2019-05-11T19:52:11.267Z,79.50
2019-05-11T19:54:38.444Z,79.54
2019-05-11T19:57:04.509Z,79.52
2019-05-11T19:59:30.436Z,80.47
2019-05-11T20:01:59.785Z,80.59
2019-05-11T20:04:24.525Z,80.72
2019-05-11T20:06:50.608Z,81.00
2019-05-11T20:09:18.971Z,81.43
2019-05-11T20:11:44.441Z,81.80
2019-05-11T20:14:10.642Z,82.22
2019-05-11T20:16:36.560Z,81.85
2019-05-11T20:19:02.607Z,82.01
2019-05-11T20:21:29.049Z,82.35
2019-05-11T20:23:55.193Z,82.32
2019-05-11T20:26:21.391Z,82.98
2019-05-11T20:28:48.300Z,82.58
2019-05-11T20:31:14.627Z,83.03
2019-05-11T20:33:40.684Z,83.30
2019-05-11T20:36:08.655Z,83.38
2019-05-11T20:38:34.733Z,83.78
2019-05-11T20:41:00.789Z,83.39
2019-05-11T20:43:27.967Z,81.01
2019-05-11T20:45:56.199Z,82.39
2019-05-11T20:48:21.956Z,81.52
2019-05-11T20:50:48.293Z,81.84
2019-05-11T20:53:14.525Z,82.26
2019-05-11T20:55:40.547Z,81.74
2019-05-11T20:58:08.597Z,81.32
2019-05-11T21:00:35.539Z,82.09
2019-05-11T21:03:01.866Z,82.89
2019-05-11T21:05:27.995Z,83.46
2019-05-11T21:07:53.914Z,83.79
2019-05-11T21:10:19.917Z,83.87
2019-05-11T21:12:45.916Z,83.30
2019-05-11T21:15:12.314Z,83.56
2019-05-11T21:17:38.474Z,83.75
2019-05-11T21:20:06.192Z,83.56
2019-05-11T21:22:32.164Z,83.74
2019-05-11T21:24:58.300Z,81.45
2019-05-11T21:27:24.301Z,81.97
2019-05-11T21:29:50.519Z,81.99
2019-05-11T21:32:18.021Z,82.59
2019-05-11T21:34:44.089Z,81.56
2019-05-11T21:37:10.084Z,81.66
2019-05-11T21:39:37.888Z,82.57
2019-05-11T21:42:03.987Z,83.21
2019-05-11T21:44:30.453Z,83.47
2019-05-11T21:46:56.595Z,83.67
2019-05-11T21:49:22.681Z,84.10
2019-05-11T21:52:02.504Z,84.15
2019-05-11T21:54:17.560Z,84.04
2019-05-11T21:56:44.689Z,84.10
2019-05-11T21:59:10.637Z,83.91
2019-05-11T22:01:38.490Z,83.82
2019-05-11T22:04:04.649Z,83.54
2019-05-11T22:06:30.706Z,84.03
2019-05-11T22:08:58.941Z,84.22
2019-05-11T22:11:24.442Z,84.44
2019-05-11T22:13:50.405Z,84.34
2019-05-11T22:16:17.333Z,84.35
2019-05-11T22:18:43.417Z,84.60
2019-05-11T22:21:09.322Z,84.89
2019-05-11T22:23:35.261Z,85.07
2019-05-11T22:26:01.492Z,85.04
2019-05-11T22:28:28.493Z,85.12
2019-05-11T22:30:54.752Z,85.24
2019-05-11T22:33:20.935Z,84.95
2019-05-11T22:35:48.079Z,84.79
2019-05-11T22:38:15.292Z,84.37
2019-05-11T22:40:41.531Z,84.36
2019-05-11T22:43:09.411Z,83.97
2019-05-11T22:45:35.568Z,84.45
2019-05-11T22:48:01.695Z,84.41
2019-05-11T22:50:29.075Z,84.10
2019-05-11T22:52:55.524Z,84.29
2019-05-11T22:55:21.432Z,84.43
2019-05-11T22:57:48.529Z,84.47
2019-05-11T23:00:18.583Z,84.54
2019-05-11T23:02:44.672Z,84.59
2019-05-11T23:05:11.027Z,84.70
2019-05-11T23:07:37.700Z,84.57
2019-05-11T23:10:05.392Z,84.58
2019-05-11T23:12:31.333Z,84.58
2019-05-11T23:14:58.534Z,84.68
2019-05-11T23:17:24.478Z,84.85
2019-05-11T23:19:50.462Z,84.94
2019-05-11T23:22:18.321Z,84.78
2019-05-11T23:24:44.273Z,84.67
2019-05-11T23:27:10.254Z,84.87
2019-05-11T23:29:38.243Z,84.91
2019-05-11T23:32:04.098Z,84.91
2019-05-11T23:34:30.013Z,84.92
2019-05-11T23:36:56.046Z,85.01
2019-05-11T23:39:22.056Z,84.80
2019-05-11T23:41:48.353Z,84.87
2019-05-11T23:44:14.423Z,84.95
2019-05-11T23:46:40.390Z,85.08
2019-05-11T23:49:08.630Z,84.89
2019-05-11T23:51:34.237Z,84.92
2019-05-11T23:54:00.143Z,85.12
2019-05-11T23:56:28.179Z,85.19
2019-05-11T23:58:57.713Z,85.30
